createdAt,value
2018-08-16T00:00:05.117Z,17.1
2018-08-16T00:05:18.168Z,17
2018-08-16T00:10:30.845Z,17
2018-08-16T00:15:03.225Z,17
2018-08-16T00:20:02.675Z,16.9
2018-08-16T00:25:03.017Z,16.8
2018-08-16T00:30:05.862Z,16.7
2018-08-16T00:35:07.740Z,16.6
2018-08-16T00:40:07.595Z,16.6
2018-08-16T00:45:05.475Z,16.6
2018-08-16T00:50:05.474Z,16.6
2018-08-16T00:55:13.307Z,16.5
2018-08-16T01:00:07.654Z,16.5
2018-08-16T01:05:02.998Z,16.5
2018-08-16T01:10:02.743Z,16.5
2018-08-16T01:15:05.696Z,16.4
2018-08-16T01:20:03.163Z,16.4
2018-08-16T01:25:05.170Z,16.4
2018-08-16T01:30:05.217Z,16.3
2018-08-16T01:35:05.390Z,16.3
2018-08-16T01:40:03.207Z,16.3
2018-08-16T01:45:12.643Z,16.2
2018-08-16T01:50:02.952Z,16.1
2018-08-16T01:55:03.267Z,16.1
2018-08-16T02:00:02.588Z,16
2018-08-16T02:05:28.262Z,16
2018-08-16T02:10:08.133Z,15.9
2018-08-16T02:15:04.890Z,15.9
2018-08-16T02:20:03.338Z,15.9
2018-08-16T02:25:05.252Z,15.8
2018-08-16T02:30:07.650Z,15.8
2018-08-16T02:35:05.472Z,15.7
2018-08-16T02:40:03.295Z,15.7
2018-08-16T02:45:07.626Z,15.6
2018-08-16T02:50:02.926Z,15.7
2018-08-16T02:55:15.850Z,15.5
2018-08-16T03:00:05.765Z,15.6
2018-08-16T03:05:04.993Z,15.5
2018-08-16T03:10:05.315Z,15.5
2018-08-16T03:15:05.647Z,15.5
2018-08-16T03:20:08.082Z,15.4
2018-08-16T03:25:07.491Z,15.4
2018-08-16T03:30:02.815Z,15.4
2018-08-16T03:35:05.696Z,15.3
2018-08-16T03:40:10.123Z,15.3
2018-08-16T03:45:07.934Z,15.2
2018-08-16T03:50:05.793Z,15.2
2018-08-16T03:55:05.092Z,15.2
2018-08-16T04:00:04.969Z,15.2
2018-08-16T04:05:05.385Z,15.2
2018-08-16T04:10:05.690Z,15.2
2018-08-16T04:15:10.061Z,15.1
2018-08-16T04:20:02.522Z,15.1
2018-08-16T04:25:02.930Z,15.1
2018-08-16T04:30:03.235Z,15.1
2018-08-16T04:35:12.822Z,15.1
2018-08-16T04:40:02.778Z,15.1
2018-08-16T04:45:08.221Z,15.3
2018-08-16T04:50:05.022Z,15.3
2018-08-16T04:55:15.450Z,15.3
2018-08-16T05:00:02.802Z,15.4
2018-08-16T05:05:05.614Z,15.5
2018-08-16T05:10:03.334Z,15.5
2018-08-16T05:15:07.835Z,15.6
2018-08-16T05:20:05.927Z,15.7
2018-08-16T05:25:02.563Z,15.7
2018-08-16T05:35:03.243Z,15.9
2018-08-16T05:40:05.622Z,16.2
2018-08-16T05:45:12.506Z,16.2
2018-08-16T05:50:05.374Z,16.3
2018-08-16T05:55:15.882Z,16.4
2018-08-16T06:00:03.245Z,16.4
2018-08-16T06:05:05.139Z,16.6
2018-08-16T06:10:02.874Z,16.6
2018-08-16T06:15:03.250Z,16.7
2018-08-16T06:20:10.272Z,16.9
2018-08-16T06:25:05.565Z,17.1
2018-08-16T06:30:03.067Z,17
2018-08-16T06:35:04.957Z,17.3
2018-08-16T06:40:02.757Z,17.3
2018-08-16T06:45:03.024Z,17.5
2018-08-16T06:50:02.579Z,17.6
2018-08-16T06:55:02.848Z,17.8
2018-08-16T07:00:08.333Z,18.1
2018-08-16T07:05:05.168Z,18.2
2018-08-16T07:10:05.565Z,18.4
2018-08-16T07:15:05.414Z,18.6
2018-08-16T07:20:02.850Z,18.6
2018-08-16T07:25:07.455Z,18.9
2018-08-16T07:30:07.993Z,19.2
2018-08-16T07:35:03.116Z,19.2
2018-08-16T07:40:02.930Z,19.4
2018-08-16T07:45:05.815Z,19.8
2018-08-16T07:50:10.226Z,19.9
2018-08-16T07:55:05.621Z,20.1
2018-08-16T08:00:08.220Z,20.2
2018-08-16T08:05:04.936Z,20.5
2018-08-16T08:10:07.892Z,20.7
2018-08-16T08:15:36.093Z,20.9
2018-08-16T08:20:10.313Z,21.2
2018-08-16T08:25:05.647Z,21.4
2018-08-16T08:30:02.490Z,21.4
2018-08-16T08:35:02.813Z,21.5
2018-08-16T08:40:02.734Z,21.6
2018-08-16T08:45:02.871Z,21.7
2018-08-16T08:50:13.385Z,22
2018-08-16T08:55:02.753Z,22
2018-08-16T09:00:31.027Z,22.2
2018-08-16T09:05:02.420Z,22.3
2018-08-16T09:10:05.785Z,22.6
2018-08-16T09:15:07.589Z,22.9
2018-08-16T09:20:08.083Z,23
2018-08-16T09:25:17.629Z,23
2018-08-16T09:30:20.725Z,23.2
2018-08-16T09:35:25.239Z,23.3
2018-08-16T09:40:03.024Z,23.4
2018-08-16T09:45:05.044Z,23.5
2018-08-16T09:50:04.970Z,23.6
2018-08-16T09:55:02.826Z,23.6
2018-08-16T10:00:18.385Z,23.9
2018-08-16T10:05:05.546Z,24.1
2018-08-16T10:10:04.879Z,24.2
2018-08-16T10:15:07.888Z,24.3
2018-08-16T10:20:05.895Z,24.3
2018-08-16T10:25:02.782Z,24.3
2018-08-16T10:30:13.337Z,24.4
2018-08-16T10:35:05.084Z,24.6
2018-08-16T10:40:02.906Z,24.6
2018-08-16T10:45:02.385Z,24.8
2018-08-16T10:50:05.301Z,25.3
2018-08-16T10:55:05.712Z,25.5
2018-08-16T11:00:03.110Z,25.5
2018-08-16T11:05:02.464Z,25.6
2018-08-16T11:10:04.898Z,25.7
2018-08-16T11:15:02.818Z,25.8
2018-08-16T11:20:03.347Z,25.8
2018-08-16T11:25:05.394Z,26.1
2018-08-16T11:30:10.339Z,26.2
2018-08-16T11:35:08.333Z,26.2
2018-08-16T11:40:05.896Z,26.4
2018-08-16T11:45:02.792Z,26.4
2018-08-16T11:50:08.193Z,26.6
2018-08-16T11:55:05.163Z,26.7
2018-08-16T12:00:02.612Z,26.7
2018-08-16T12:05:02.971Z,26.9
2018-08-16T12:10:03.296Z,27
2018-08-16T12:15:07.989Z,27.4
2018-08-16T12:20:02.924Z,27.4
2018-08-16T12:25:03.295Z,27.6
2018-08-16T12:30:15.367Z,27.9
2018-08-16T12:35:03.173Z,27.9
2018-08-16T12:40:08.141Z,28.1
2018-08-16T12:45:02.814Z,28.2
2018-08-16T12:50:02.425Z,28.3
2018-08-16T12:55:02.883Z,28.5
2018-08-16T13:00:05.765Z,28.6
2018-08-16T13:05:10.328Z,28.7
2018-08-16T13:10:03.234Z,28.7
2018-08-16T13:15:02.830Z,29
2018-08-16T13:20:05.035Z,29.1
2018-08-16T13:25:02.923Z,29.1
2018-08-16T13:30:08.384Z,29.5
2018-08-16T13:35:20.545Z,29.6
2018-08-16T13:40:02.414Z,29.6
2018-08-16T13:45:08.082Z,29.9
2018-08-16T13:50:05.245Z,29.9
2018-08-16T13:55:03.227Z,29.9
2018-08-16T14:00:05.323Z,29.8
2018-08-16T14:05:08.299Z,29.9
2018-08-16T14:10:08.388Z,30.2
2018-08-16T14:15:02.635Z,30.1
2018-08-16T14:20:20.925Z,30.4
2018-08-16T14:25:05.266Z,30.4
2018-08-16T14:30:07.783Z,30.5
2018-08-16T14:35:05.774Z,30.7
2018-08-16T14:40:05.312Z,30.5
2018-08-16T14:45:08.251Z,30.7
2018-08-16T14:50:10.235Z,30.7
2018-08-16T14:55:05.786Z,30.7
2018-08-16T15:00:03.262Z,30.7
2018-08-16T15:05:10.389Z,30.8
2018-08-16T15:10:08.330Z,30.8
2018-08-16T15:15:02.725Z,30.8
2018-08-16T15:20:05.771Z,31.7
2018-08-16T15:25:07.782Z,32.4
2018-08-16T15:30:05.790Z,32.9
2018-08-16T15:35:03.011Z,32.8
2018-08-16T15:40:03.104Z,32.8
2018-08-16T15:45:02.566Z,32.7
2018-08-16T15:50:02.997Z,32.4
2018-08-16T15:55:25.359Z,31.7
2018-08-16T16:00:07.892Z,31.3
2018-08-16T16:05:07.461Z,31
2018-08-16T16:10:02.509Z,31.1
2018-08-16T16:15:02.946Z,31.1
2018-08-16T16:20:05.064Z,31.1
2018-08-16T16:25:08.153Z,30.9
2018-08-16T16:30:05.117Z,30.8
2018-08-16T16:35:05.672Z,30.6
2018-08-16T16:40:05.210Z,30.4
2018-08-16T16:45:10.772Z,30.1
2018-08-16T16:50:13.320Z,29.9
2018-08-16T16:55:02.625Z,29.9
2018-08-16T17:00:05.644Z,29.7
2018-08-16T17:05:07.572Z,29.5
2018-08-16T17:10:02.430Z,29.5
2018-08-16T17:15:03.046Z,29.5
2018-08-16T17:20:05.353Z,29.1
2018-08-16T17:25:03.299Z,29.1
2018-08-16T17:30:05.305Z,29
2018-08-16T17:35:05.826Z,29
2018-08-16T17:40:05.298Z,29
2018-08-16T17:45:07.415Z,28.9
2018-08-16T17:55:10.690Z,28.5
2018-08-16T18:00:05.713Z,28.3
2018-08-16T18:05:07.644Z,28.1
2018-08-16T18:10:05.023Z,28
2018-08-16T18:15:02.966Z,28
2018-08-16T18:20:07.501Z,27.7
2018-08-16T18:25:03.108Z,27.7
2018-08-16T18:30:02.715Z,27.5
2018-08-16T18:35:05.704Z,27.2
2018-08-16T18:40:05.139Z,27.1
2018-08-16T18:45:03.009Z,27.1
2018-08-16T18:50:02.390Z,26.9
2018-08-16T18:55:05.337Z,26.6
2018-08-16T19:00:05.298Z,26.4
2018-08-16T19:05:05.699Z,26.3
2018-08-16T19:10:05.083Z,26.1
2018-08-16T19:15:03.076Z,26.1
2018-08-16T19:20:02.598Z,25.9
2018-08-16T19:25:05.594Z,25.5
2018-08-16T19:30:05.687Z,25.4
2018-08-16T19:35:17.562Z,0
2018-08-16T19:40:07.501Z,25.2
2018-08-16T19:45:08.005Z,25.1
2018-08-16T19:50:02.783Z,25.1
2018-08-16T19:55:02.980Z,25
2018-08-16T20:00:05.832Z,24.8
2018-08-16T20:05:05.224Z,24.7
2018-08-16T20:10:03.187Z,24.7
2018-08-16T20:15:02.608Z,24.6
2018-08-16T20:20:05.792Z,24.3
2018-08-16T20:25:02.675Z,24.3
2018-08-16T20:30:03.196Z,24.2
2018-08-16T20:35:02.930Z,24.1
2018-08-16T20:40:02.618Z,24
2018-08-16T20:45:05.632Z,23.8
2018-08-16T20:50:05.671Z,23.7
2018-08-16T20:55:20.288Z,23.5
2018-08-16T21:00:05.215Z,23.4
2018-08-16T21:05:08.136Z,23.2
2018-08-16T21:10:08.212Z,23.1
2018-08-16T21:15:05.406Z,23
2018-08-16T21:20:03.171Z,23
2018-08-16T21:25:05.106Z,22.7
2018-08-16T21:30:04.937Z,22.6
2018-08-16T21:35:02.792Z,22.6
2018-08-16T21:40:02.687Z,22.5
2018-08-16T21:45:05.737Z,22.3
2018-08-16T21:50:05.645Z,22.2
2018-08-16T21:55:02.537Z,22.1
2018-08-16T22:00:05.448Z,21.9
2018-08-16T22:05:05.835Z,21.9
2018-08-16T22:10:02.728Z,21.8
2018-08-16T22:15:03.050Z,21.8
2018-08-16T22:20:07.545Z,21.6
2018-08-16T22:25:10.475Z,21.5
2018-08-16T22:30:05.626Z,21.5
2018-08-16T22:35:20.315Z,21.4
2018-08-16T22:40:05.627Z,21.3
2018-08-16T22:45:07.564Z,21.2
2018-08-16T22:50:10.797Z,21.1
2018-08-16T22:55:02.527Z,21.1
2018-08-16T23:00:03.013Z,21.1
2018-08-16T23:05:05.868Z,21
2018-08-16T23:10:02.734Z,20.9
2018-08-16T23:15:10.769Z,20.8
2018-08-16T23:20:08.283Z,20.7
2018-08-16T23:25:05.064Z,20.7
2018-08-16T23:30:09.981Z,20.6
2018-08-16T23:35:05.377Z,20.5
2018-08-16T23:40:10.711Z,20.4
2018-08-16T23:45:05.079Z,20.4
2018-08-16T23:50:04.914Z,20.3
2018-08-16T23:55:02.838Z,20.3
